^^
Meteo Knjazevac Station Historical Data
Daily Summary for November 18, 2021 Units:  English    Metric   Both
Daily Weekly Monthly Yearly Custom
  High: Low: Average:
Temperature: 49.6 °F 41.5 °F 44.2 °F
Dew Point: 43.8 °F 40.3 °F 41.7 °F
Humidity: 99% 79% 91%
Wind Speed: 9mph 0mph 3.7mph
Wind Gust: 17mph - -
Wind- - SW
Pressure: 30.38 in 30.28 in -
Precipitation: 0.00 in    
Historical Graphs
 
 
Tabular Data for November 18, 2021
Time Temperature Dew Point Pressure Wind Wind Speed Wind Gust Humidity Rainfall Rate (Hourly) solar Conditions
00:00 41.9 °F 41.4 °F 30.28 in North 1 mph 3 mph 98% 0.00 in 0 W/m2
00:30 41.9 °F 41.4 °F 30.28 in NNE 1 mph 2 mph 98% 0.00 in 0 W/m2
00:40 41.9 °F 41.4 °F 30.28 in North 1 mph 3 mph 98% 0.00 in 0 W/m2
00:50 41.9 °F 41.4 °F 30.28 in North 2 mph 3 mph 98% 0.00 in 0 W/m2
01:00 41.9 °F 41.4 °F 30.28 in North 1 mph 3 mph 98% 0.00 in 0 W/m2
01:10 41.9 °F 41.4 °F 30.28 in NNE 2 mph 3 mph 98% 0.00 in 0 W/m2
01:20 41.9 °F 41.4 °F 30.28 in Calm   2 mph 98% 0.00 in 0 W/m2
01:30 41.9 °F 41.4 °F 30.28 in Calm   2 mph 98% 0.00 in 0 W/m2
01:40 41.9 °F 41.4 °F 30.28 in Calm   2 mph 98% 0.00 in 0 W/m2
01:50 41.9 °F 41.4 °F 30.28 in North 1 mph 2 mph 98% 0.00 in 0 W/m2
02:00 41.9 °F 41.4 °F 30.28 in North 1 mph 2 mph 98% 0.00 in 0 W/m2
02:10 41.9 °F 41.4 °F 30.28 in Calm   2 mph 98% 0.00 in 0 W/m2
02:20 41.7 °F 41.2 °F 30.28 in Calm   2 mph 98% 0.00 in 0 W/m2
02:30 41.9 °F 41.4 °F 30.28 in Calm   1 mph 98% 0.00 in 0 W/m2
02:40 41.7 °F 41.2 °F 30.28 in NNW 1 mph 2 mph 98% 0.00 in 0 W/m2
02:50 41.7 °F 41.2 °F 30.29 in Calm   2 mph 98% 0.00 in 0 W/m2
03:00 41.7 °F 41.2 °F 30.29 in Calm   1 mph 98% 0.00 in 0 W/m2
03:10 41.7 °F 41.2 °F 30.29 in NNW 1 mph 2 mph 98% 0.00 in 0 W/m2
03:20 41.7 °F 41.2 °F 30.29 in Calm   2 mph 98% 0.00 in 0 W/m2
03:30 41.7 °F 41.2 °F 30.29 in Calm   2 mph 98% 0.00 in 0 W/m2
03:40 41.7 °F 41.2 °F 30.29 in NNE 1 mph 2 mph 98% 0.00 in 0 W/m2
03:50 41.7 °F 41.2 °F 30.29 in Calm   2 mph 98% 0.00 in 0 W/m2
04:00 41.7 °F 41.2 °F 30.29 in Calm   1 mph 98% 0.00 in 0 W/m2
04:10 41.7 °F 41.2 °F 30.29 in Calm   2 mph 98% 0.00 in 0 W/m2
04:20 41.7 °F 41.2 °F 30.29 in Calm   1 mph 98% 0.00 in 0 W/m2
04:30 41.7 °F 41.2 °F 30.29 in Calm     98% 0.00 in 0 W/m2
04:40 41.7 °F 41.2 °F 30.29 in Calm   2 mph 98% 0.00 in 0 W/m2
04:50 41.7 °F 41.2 °F 30.29 in Calm   3 mph 98% 0.00 in 0 W/m2
05:00 41.7 °F 41.2 °F 30.29 in Calm   2 mph 98% 0.00 in 0 W/m2
05:10 41.9 °F 41.6 °F 30.29 in ENE 1 mph 3 mph 99% 0.00 in 0 W/m2
05:30 41.7 °F 41.5 °F 30.29 in WNW 2 mph 3 mph 99% 0.00 in 0 W/m2
05:40 41.7 °F 41.5 °F 30.29 in Calm   2 mph 99% 0.00 in 0 W/m2
05:50 41.7 °F 41.5 °F 30.29 in Calm   2 mph 99% 0.00 in 0 W/m2
06:00 41.7 °F 41.5 °F 30.30 in Calm   2 mph 99% 0.00 in 0 W/m2
06:10 41.5 °F 41.3 °F 30.30 in Calm   1 mph 99% 0.00 in 0 W/m2
06:20 41.5 °F 41.3 °F 30.30 in Calm     99% 0.00 in 0 W/m2
06:30 41.5 °F 41.3 °F 30.30 in Calm   2 mph 99% 0.00 in 1 W/m2
06:40 41.7 °F 41.5 °F 30.30 in Calm   2 mph 99% 0.00 in 2 W/m2
06:50 41.7 °F 41.5 °F 30.30 in Calm   2 mph 99% 0.00 in 5 W/m2
07:00 41.9 °F 41.6 °F 30.30 in North 2 mph 3 mph 99% 0.00 in 8 W/m2
07:10 41.9 °F 41.6 °F 30.30 in WSW 1 mph 2 mph 99% 0.00 in 12 W/m2
07:20 42.1 °F 41.8 °F 30.31 in Calm   2 mph 99% 0.00 in 20 W/m2
07:30 42.3 °F 42 °F 30.31 in Calm   1 mph 99% 0.00 in 24 W/m2
07:40 42.4 °F 41.9 °F 30.31 in Calm   1 mph 98% 0.00 in 28 W/m2
07:50 42.6 °F 42.1 °F 30.32 in ENE 1 mph 3 mph 98% 0.00 in 30 W/m2
08:00 42.8 °F 42.3 °F 30.32 in Calm   3 mph 98% 0.00 in 32 W/m2
08:10 43 °F 42.5 °F 30.32 in WSW 1 mph 2 mph 98% 0.00 in 35 W/m2
08:30 43.3 °F 42.3 °F 30.32 in WSW 1 mph 3 mph 96% 0.00 in 54 W/m2
08:40 43.7 °F 42.6 °F 30.32 in SW 2 mph 4 mph 96% 0.00 in 72 W/m2
08:50 44.1 °F 42.7 °F 30.32 in SW 1 mph 4 mph 95% 0.00 in 86 W/m2
09:00 44.4 °F 43.1 °F 30.33 in Calm   3 mph 95% 0.00 in 105 W/m2
09:10 44.8 °F 43.2 °F 30.33 in South 2 mph 3 mph 94% 0.00 in 95 W/m2
09:20 45.1 °F 43.5 °F 30.33 in SSW 2 mph 8 mph 94% 0.00 in 110 W/m2
09:30 45.5 °F 43 °F 30.33 in West 7 mph 10 mph 91% 0.00 in 122 W/m2
09:40 45.7 °F 42.9 °F 30.33 in West 7 mph 16 mph 90% 0.00 in 122 W/m2
09:50 46 °F 43 °F 30.34 in West 6 mph 13 mph 89% 0.00 in 140 W/m2
10:00 46.1 °F 43 °F 30.34 in West 8 mph 13 mph 89% 0.00 in 142 W/m2
10:10 46.4 °F 43 °F 30.34 in WSW 6 mph 11 mph 88% 0.00 in 140 W/m2
10:20 46.6 °F 43.2 °F 30.34 in SW 6 mph 9 mph 88% 0.00 in 166 W/m2
10:30 46.8 °F 43.4 °F 30.34 in SW 6 mph 10 mph 88% 0.00 in 170 W/m2
10:40 47.3 °F 43.3 °F 30.34 in WSW 5 mph 12 mph 86% 0.00 in 195 W/m2
10:50 47.5 °F 43.2 °F 30.34 in West 7 mph 13 mph 85% 0.00 in 188 W/m2
11:00 48 °F 43.4 °F 30.34 in West 5 mph 13 mph 84% 0.00 in 187 W/m2
11:10 48.7 °F 43.8 °F 30.33 in West 6 mph 14 mph 83% 0.00 in 338 W/m2
11:20 49.3 °F 43.4 °F 30.33 in West 7 mph 14 mph 80% 0.00 in 229 W/m2
11:30 49.5 °F 43.5 °F 30.33 in West 7 mph 13 mph 80% 0.00 in 181 W/m2
11:40 49.6 °F 43.7 °F 30.33 in West 8 mph 15 mph 80% 0.00 in 398 W/m2
11:50 49.6 °F 43.4 °F 30.33 in WSW 5 mph 14 mph 79% 0.00 in 97 W/m2
12:00 49.1 °F 43.2 °F 30.33 in WSW 7 mph 13 mph 80% 0.00 in 120 W/m2
12:10 49.1 °F 43.2 °F 30.32 in West 7 mph 13 mph 80% 0.00 in 108 W/m2
12:20 48.7 °F 42.8 °F 30.32 in West 6 mph 12 mph 80% 0.00 in 93 W/m2
12:30 48.5 °F 43 °F 30.32 in West 8 mph 15 mph 81% 0.00 in 73 W/m2
12:40 48 °F 43.1 °F 30.32 in West 7 mph 13 mph 83% 0.00 in 74 W/m2
12:50 47.8 °F 43.2 °F 30.33 in West 7 mph 14 mph 84% 0.00 in 51 W/m2
13:00 47.5 °F 43.2 °F 30.33 in West 7 mph 13 mph 85% 0.00 in 39 W/m2
13:10 47.1 °F 42.8 °F 30.33 in WSW 5 mph 11 mph 85% 0.00 in 35 W/m2
13:20 46.9 °F 42.9 °F 30.33 in WSW 5 mph 11 mph 86% 0.00 in 29 W/m2
13:30 46.6 °F 42.6 °F 30.33 in WSW 3 mph 9 mph 86% 0.00 in 23 W/m2
13:40 46.6 °F 43.2 °F 30.33 in WSW 6 mph 10 mph 88% 0.00 in 22 W/m2
13:50 46.4 °F 43 °F 30.33 in WSW 6 mph 14 mph 88% 0.00 in 20 W/m2
14:00 46.4 °F 43 °F 30.33 in West 5 mph 12 mph 88% 0.00 in 15 W/m2
14:10 46.2 °F 42.9 °F 30.32 in West 7 mph 13 mph 88% 0.00 in 15 W/m2
14:20 46.2 °F 42.3 °F 30.33 in WNW 7 mph 14 mph 86% 0.00 in 14 W/m2
14:30 46.2 °F 42.3 °F 30.33 in WNW 7 mph 16 mph 86% 0.00 in 13 W/m2
14:40 46.2 °F 42.3 °F 30.33 in West 8 mph 14 mph 86% 0.00 in 18 W/m2
14:50 46.2 °F 42.3 °F 30.33 in West 7 mph 13 mph 86% 0.00 in 15 W/m2
15:00 46.2 °F 42.3 °F 30.34 in West 6 mph 12 mph 86% 0.00 in 8 W/m2
15:10 46 °F 41.8 °F 30.34 in WNW 7 mph 15 mph 85% 0.00 in 10 W/m2
15:20 45.9 °F 41.6 °F 30.34 in West 6 mph 14 mph 85% 0.00 in 9 W/m2
15:30 45.9 °F 41.6 °F 30.33 in West 9 mph 15 mph 85% 0.00 in 8 W/m2
15:40 45.7 °F 41.4 °F 30.34 in West 6 mph 15 mph 85% 0.00 in 6 W/m2
15:50 45.7 °F 41.4 °F 30.34 in West 7 mph 13 mph 85% 0.00 in 2 W/m2
16:00 45.7 °F 41.7 °F 30.35 in WNW 5 mph 12 mph 86% 0.00 in 1 W/m2
16:10 45.3 °F 41.4 °F 30.35 in WNW 7 mph 14 mph 86% 0.00 in 0 W/m2
16:20 45.1 °F 41.2 °F 30.35 in WNW 7 mph 16 mph 86% 0.00 in 0 W/m2
16:30 44.9 °F 41 °F 30.35 in West 5 mph 12 mph 86% 0.00 in 0 W/m2
16:40 44.6 °F 40.7 °F 30.35 in West 8 mph 11 mph 86% 0.00 in 0 W/m2
16:50 44.6 °F 40.6 °F 30.35 in West 7 mph 12 mph 86% 0.00 in 0 W/m2
17:00 44.4 °F 40.5 °F 30.35 in West 6 mph 11 mph 86% 0.00 in 0 W/m2
17:10 44.4 °F 40.5 °F 30.35 in WSW 7 mph 13 mph 86% 0.00 in 0 W/m2
17:20 44.2 °F 40.3 °F 30.36 in WSW 8 mph 17 mph 86% 0.00 in 0 W/m2
17:30 44.1 °F 40.7 °F 30.36 in West 3 mph 10 mph 88% 0.00 in 0 W/m2
17:40 44.1 °F 40.7 °F 30.37 in WSW 3 mph 10 mph 88% 0.00 in 0 W/m2
17:50 44.1 °F 40.7 °F 30.36 in WSW 6 mph 10 mph 88% 0.00 in 0 W/m2
18:00 43.9 °F 40.8 °F 30.37 in WSW 6 mph 10 mph 89% 0.00 in 0 W/m2
18:10 43.7 °F 41 °F 30.37 in WSW 5 mph 10 mph 90% 0.00 in 0 W/m2
18:20 43.7 °F 40.9 °F 30.37 in WSW 5 mph 8 mph 90% 0.00 in 0 W/m2
18:30 43.5 °F 40.8 °F 30.37 in WSW 7 mph 10 mph 90% 0.00 in 0 W/m2
18:40 43.5 °F 40.8 °F 30.37 in WSW 6 mph 10 mph 90% 0.00 in 0 W/m2
18:50 43.5 °F 40.8 °F 30.37 in WSW 5 mph 11 mph 90% 0.00 in 0 W/m2
19:00 43.5 °F 40.8 °F 30.37 in WSW 6 mph 9 mph 90% 0.00 in 0 W/m2
19:10 43.7 °F 40.7 °F 30.37 in WSW 5 mph 8 mph 89% 0.00 in 0 W/m2
19:20 43.7 °F 40.7 °F 30.37 in WSW 6 mph 12 mph 89% 0.00 in 0 W/m2
19:30 43.7 °F 40.7 °F 30.37 in West 3 mph 10 mph 89% 0.00 in 0 W/m2
19:40 43.7 °F 40.7 °F 30.37 in WSW 5 mph 7 mph 89% 0.00 in 0 W/m2
19:50 43.7 °F 40.4 °F 30.38 in WSW 5 mph 12 mph 88% 0.00 in 0 W/m2
20:00 43.9 °F 40.6 °F 30.38 in WSW 5 mph 9 mph 88% 0.00 in 0 W/m2
20:10 43.9 °F 40.8 °F 30.38 in WSW 6 mph 13 mph 89% 0.00 in 0 W/m2
20:20 43.9 °F 40.8 °F 30.38 in WSW 7 mph 13 mph 89% 0.00 in 0 W/m2
20:30 43.9 °F 40.8 °F 30.38 in WSW 6 mph 11 mph 89% 0.00 in 0 W/m2
20:40 43.9 °F 40.9 °F 30.38 in WSW 3 mph 8 mph 89% 0.00 in 0 W/m2
20:50 43.9 °F 40.8 °F 30.38 in WSW 5 mph 9 mph 89% 0.00 in 0 W/m2
21:00 44 °F 41 °F 30.38 in WSW 5 mph 8 mph 89% 0.00 in 0 W/m2
21:10 44.1 °F 41 °F 30.38 in WSW 3 mph 7 mph 89% 0.00 in 0 W/m2
21:20 44 °F 41 °F 30.38 in WSW 5 mph 8 mph 89% 0.00 in 0 W/m2
21:30 44.1 °F 41 °F 30.38 in WSW 3 mph 9 mph 89% 0.00 in 0 W/m2
21:40 44.1 °F 41 °F 30.38 in WSW 3 mph 9 mph 89% 0.00 in 0 W/m2
21:50 44.1 °F 41 °F 30.38 in WSW 3 mph 7 mph 89% 0.00 in 0 W/m2
22:00 44.2 °F 40.9 °F 30.38 in WSW 5 mph 8 mph 88% 0.00 in 0 W/m2
22:10 44.2 °F 40.9 °F 30.38 in WSW 3 mph 8 mph 88% 0.00 in 0 W/m2
22:20 44.1 °F 41 °F 30.38 in WSW 6 mph 8 mph 89% 0.00 in 0 W/m2
22:30 44.1 °F 41 °F 30.38 in WSW 3 mph 9 mph 89% 0.00 in 0 W/m2
22:40 44.1 °F 41 °F 30.38 in WSW 3 mph 7 mph 89% 0.00 in 0 W/m2
22:50 44.1 °F 41 °F 30.38 in WSW 3 mph 7 mph 89% 0.00 in 0 W/m2
23:00 44.1 °F 40.7 °F 30.38 in WSW 5 mph 8 mph 88% 0.00 in 0 W/m2
23:10 44.1 °F 40.7 °F 30.37 in SW 2 mph 7 mph 88% 0.00 in 0 W/m2
23:20 44.1 °F 41 °F 30.37 in WSW 5 mph 6 mph 89% 0.00 in 0 W/m2
23:30 44.1 °F 41 °F 30.37 in WSW 6 mph 8 mph 89% 0.00 in 0 W/m2
23:40 44 °F 41 °F 30.37 in WSW 3 mph 8 mph 89% 0.00 in 0 W/m2
23:50 43.9 °F 41.2 °F 30.37 in WSW 3 mph 7 mph 90% 0.00 in 0 W/m2
Knjazevac, Serbia
Compliments of Weather Underground - 2 mb